BIKA weather

Kaldármelar Airport
Kaldármelar, Western Region, Iceland

Public forecast

Using degrees Celsius for public forecast. Weather courtesy of forecast.io.

Closest aviation weather report (METAR) to Kaldármelar Airport

Closest report is Reykjavik Airport, 39.8 nm (73.7 km) SSE. Retrieved 2019/10/15 09:00 UTC (59 minutes ago):

BIRK 150900Z 07016KT 9999 FEW038 SCT060 BKN200 10/04 Q0990

Closest aviation forecast (TAF) to Kaldármelar Airport

Closest forecast is Reykjavik Airport, 39.8 nm (73.7 km) SSE. Retrieved 2019/10/15 09:48 UTC (11 minutes ago):

TAF BIRK 150741Z 1509/1609 09017KT 9999 -RA BKN023 OVC030 TX11/1512Z TN08/1603Z BECMG 1512/1514 10022G32KT BECMG 1601/1603 09017KT